createdAt,value
2023-05-17T00:02:06.737Z,12.90
2023-05-17T00:04:33.777Z,12.90
2023-05-17T00:07:00.721Z,13.00
2023-05-17T00:09:27.895Z,12.90
2023-05-17T00:11:54.810Z,12.90
2023-05-17T00:14:21.718Z,12.90
2023-05-17T00:16:48.625Z,12.90
2023-05-17T00:19:15.681Z,12.90
2023-05-17T00:21:43.158Z,12.90
2023-05-17T00:24:10.299Z,12.90
2023-05-17T00:26:37.288Z,12.90
2023-05-17T00:29:04.318Z,12.80
2023-05-17T00:31:31.391Z,12.80
2023-05-17T00:33:58.308Z,12.80
2023-05-17T00:36:25.224Z,12.80
2023-05-17T00:38:52.157Z,12.80
2023-05-17T00:41:19.099Z,12.70
2023-05-17T00:43:46.350Z,12.70
2023-05-17T00:46:13.922Z,12.70
2023-05-17T00:48:41.453Z,12.70
2023-05-17T00:51:08.862Z,12.70
2023-05-17T00:53:37.280Z,12.60
2023-05-17T00:56:07.393Z,12.60
2023-05-17T00:58:34.489Z,12.70
2023-05-17T01:01:02.182Z,12.60
2023-05-17T01:03:29.249Z,12.60
2023-05-17T01:05:56.445Z,12.60
2023-05-17T01:08:23.425Z,12.60
2023-05-17T01:11:27.582Z,12.60
2023-05-17T01:14:26.748Z,12.60
2023-05-17T01:17:12.214Z,12.60
2023-05-17T01:20:06.484Z,12.50
2023-05-17T01:22:47.309Z,12.60
2023-05-17T01:26:07.081Z,12.50
2023-05-17T01:28:34.958Z,12.50
2023-05-17T01:31:03.890Z,12.60
2023-05-17T01:33:32.209Z,12.60
2023-05-17T01:35:59.174Z,12.50
2023-05-17T01:38:26.159Z,12.50
2023-05-17T01:41:14.329Z,12.60
2023-05-17T01:43:53.072Z,12.60
2023-05-17T01:46:39.058Z,12.60
2023-05-17T01:49:22.338Z,12.70
2023-05-17T01:51:59.155Z,12.70
2023-05-17T01:54:42.418Z,12.80
2023-05-17T01:57:11.768Z,12.80
2023-05-17T01:59:39.792Z,12.90
2023-05-17T02:02:08.865Z,12.90
2023-05-17T02:04:36.778Z,13.00
2023-05-17T02:07:04.221Z,13.00
2023-05-17T02:09:31.319Z,13.00
2023-05-17T02:11:58.269Z,13.10
2023-05-17T02:14:25.318Z,13.10
2023-05-17T02:16:52.485Z,13.20
2023-05-17T02:19:19.498Z,13.20
2023-05-17T02:21:46.536Z,13.20
2023-05-17T02:24:13.453Z,13.30
2023-05-17T02:26:43.354Z,13.30
2023-05-17T02:29:11.226Z,13.30
2023-05-17T02:31:38.224Z,13.30
2023-05-17T02:34:05.233Z,13.30
2023-05-17T02:36:32.597Z,13.20
2023-05-17T02:38:59.811Z,13.20
2023-05-17T02:41:26.935Z,13.20
2023-05-17T02:43:53.864Z,13.20
2023-05-17T02:46:21.633Z,13.10
2023-05-17T02:48:48.546Z,13.10
2023-05-17T02:51:15.721Z,13.10
2023-05-17T02:53:42.922Z,13.10
2023-05-17T02:56:09.842Z,13.00
2023-05-17T02:58:36.974Z,13.00
2023-05-17T03:01:04.123Z,13.00
2023-05-17T03:03:31.837Z,12.90
2023-05-17T03:06:04.716Z,12.90
2023-05-17T03:08:32.480Z,13.00
2023-05-17T03:11:01.477Z,12.90
2023-05-17T03:13:28.650Z,12.80
2023-05-17T03:15:55.586Z,12.80
2023-05-17T03:18:22.805Z,12.80
2023-05-17T03:20:50.770Z,12.70
2023-05-17T03:23:18.096Z,12.70
2023-05-17T03:25:59.108Z,12.70
2023-05-17T03:28:28.015Z,12.70
2023-05-17T03:30:55.978Z,12.70
2023-05-17T03:33:23.502Z,12.60
2023-05-17T03:35:50.717Z,12.60
2023-05-17T03:38:17.850Z,12.60
2023-05-17T03:40:45.096Z,12.60
2023-05-17T03:43:12.212Z,12.60
2023-05-17T03:45:39.344Z,12.50
2023-05-17T03:48:06.975Z,12.50
2023-05-17T03:50:34.235Z,12.60
2023-05-17T03:53:01.181Z,12.50
2023-05-17T03:55:28.353Z,12.50
2023-05-17T03:57:55.466Z,12.50
2023-05-17T04:00:23.256Z,12.50
2023-05-17T04:02:53.194Z,12.50
2023-05-17T04:05:20.356Z,12.50
2023-05-17T04:07:48.490Z,12.60
2023-05-17T04:10:15.420Z,12.70
2023-05-17T04:12:42.349Z,12.80
2023-05-17T04:15:09.883Z,12.90
2023-05-17T04:17:38.539Z,12.90
2023-05-17T04:20:06.707Z,13.10
2023-05-17T04:22:34.751Z,13.20
2023-05-17T04:25:01.701Z,13.30
2023-05-17T04:27:29.430Z,13.30
2023-05-17T04:29:56.539Z,13.40
2023-05-17T04:32:24.164Z,13.40
2023-05-17T04:34:52.108Z,13.40
2023-05-17T04:37:20.068Z,13.50
2023-05-17T04:39:50.091Z,13.50
2023-05-17T04:42:17.115Z,13.50
2023-05-17T04:44:50.259Z,13.60
2023-05-17T04:47:17.375Z,13.50
2023-05-17T04:49:44.335Z,13.50
2023-05-17T04:52:11.335Z,13.50
2023-05-17T04:54:38.937Z,13.50
2023-05-17T04:57:06.038Z,13.60
2023-05-17T04:59:53.585Z,13.50
2023-05-17T05:02:21.538Z,13.50
2023-05-17T05:04:48.526Z,13.60
2023-05-17T05:07:15.726Z,13.60
2023-05-17T05:09:44.096Z,13.60
2023-05-17T05:12:12.053Z,13.60
2023-05-17T05:14:43.276Z,13.60
2023-05-17T05:17:10.412Z,13.60
2023-05-17T05:19:39.127Z,13.60
2023-05-17T05:22:06.774Z,13.60
2023-05-17T05:24:35.424Z,13.60
2023-05-17T05:27:04.428Z,13.70
2023-05-17T05:29:33.241Z,13.70
2023-05-17T05:32:00.389Z,13.70
2023-05-17T05:34:28.543Z,13.70
2023-05-17T05:36:55.862Z,13.70
2023-05-17T05:39:23.027Z,13.70
2023-05-17T05:41:51.842Z,13.60
2023-05-17T05:44:19.322Z,13.60
2023-05-17T05:46:46.658Z,13.60
2023-05-17T05:49:14.307Z,13.60
2023-05-17T05:51:41.357Z,13.60
2023-05-17T05:54:08.363Z,13.50
2023-05-17T05:56:35.264Z,13.50
2023-05-17T05:59:02.333Z,13.50
2023-05-17T06:01:29.638Z,13.60
2023-05-17T06:03:56.683Z,13.60
2023-05-17T06:06:23.674Z,13.60
2023-05-17T06:08:50.606Z,13.70
2023-05-17T06:11:18.580Z,13.70
2023-05-17T06:13:45.511Z,13.70
2023-05-17T06:16:12.393Z,13.80
2023-05-17T06:18:39.405Z,13.90
2023-05-17T06:21:06.453Z,13.80
2023-05-17T06:23:33.419Z,13.80
2023-05-17T06:26:01.012Z,13.80
2023-05-17T06:28:27.951Z,13.80
2023-05-17T06:30:54.855Z,13.80
2023-05-17T06:33:21.891Z,13.90
2023-05-17T06:35:56.894Z,14.00
2023-05-17T06:38:24.575Z,14.00
2023-05-17T06:40:55.666Z,14.10
2023-05-17T06:43:22.781Z,14.10
2023-05-17T06:45:49.740Z,14.10
2023-05-17T06:48:16.897Z,14.20
2023-05-17T06:50:43.969Z,14.30
2023-05-17T06:53:10.871Z,14.30
2023-05-17T06:55:37.930Z,14.40
2023-05-17T06:58:05.002Z,14.50
2023-05-17T07:00:32.457Z,14.60
2023-05-17T07:03:00.019Z,14.60
2023-05-17T07:05:29.173Z,14.70
2023-05-17T07:07:58.142Z,14.80
2023-05-17T07:10:25.333Z,14.90
2023-05-17T07:12:53.353Z,15.00
2023-05-17T07:15:20.402Z,15.10
2023-05-17T07:17:47.473Z,15.20
2023-05-17T07:20:15.033Z,15.30
2023-05-17T07:22:42.301Z,15.40
2023-05-17T07:25:09.931Z,15.50
2023-05-17T07:27:36.866Z,15.70
2023-05-17T07:30:04.450Z,15.70
2023-05-17T07:32:31.426Z,15.80
2023-05-17T07:34:58.428Z,15.80
2023-05-17T07:37:25.448Z,15.90
2023-05-17T07:39:52.358Z,15.90
2023-05-17T07:42:19.368Z,15.80
2023-05-17T07:44:48.605Z,15.80
2023-05-17T07:47:17.337Z,15.70
2023-05-17T07:49:47.292Z,15.70
2023-05-17T07:52:14.236Z,15.70
2023-05-17T07:54:41.233Z,15.70
2023-05-17T07:57:08.533Z,15.60
2023-05-17T07:59:35.554Z,15.60
2023-05-17T08:02:02.435Z,15.50
2023-05-17T08:04:29.637Z,15.50
2023-05-17T08:06:56.573Z,15.50
2023-05-17T08:09:23.459Z,15.60
2023-05-17T08:11:50.353Z,15.60
2023-05-17T08:14:18.024Z,15.70
2023-05-17T08:16:48.116Z,15.70
2023-05-17T08:19:16.664Z,15.70
2023-05-17T08:21:44.018Z,15.80
2023-05-17T08:24:11.604Z,15.80
2023-05-17T08:26:38.917Z,15.80
2023-05-17T08:29:06.164Z,15.80
2023-05-17T08:31:33.787Z,15.80
2023-05-17T08:34:00.797Z,15.80
2023-05-17T08:36:28.543Z,15.90
2023-05-17T08:38:55.673Z,15.90
2023-05-17T08:41:22.808Z,16.00
2023-05-17T08:43:50.986Z,16.00
2023-05-17T08:46:21.711Z,16.10
2023-05-17T08:48:51.929Z,16.10
2023-05-17T08:51:20.842Z,16.20
2023-05-17T08:53:48.151Z,16.30
2023-05-17T08:56:21.222Z,16.40
2023-05-17T08:58:57.239Z,16.50
2023-05-17T09:01:26.904Z,16.60
2023-05-17T09:03:55.014Z,16.70
2023-05-17T09:06:23.906Z,16.80
2023-05-17T09:08:54.605Z,16.90
2023-05-17T09:11:27.817Z,17.00
2023-05-17T09:13:59.392Z,17.00
2023-05-17T09:16:33.339Z,17.00
2023-05-17T09:19:00.440Z,17.00
2023-05-17T09:21:31.018Z,16.90
2023-05-17T09:24:07.097Z,17.00
2023-05-17T09:26:45.238Z,17.00
2023-05-17T09:29:16.758Z,17.10
2023-05-17T09:31:44.689Z,17.00
2023-05-17T09:34:12.335Z,17.00
2023-05-17T09:36:43.707Z,17.00
2023-05-17T09:39:13.663Z,17.10
2023-05-17T09:41:47.956Z,17.10
2023-05-17T09:44:15.834Z,17.10
2023-05-17T09:46:47.308Z,17.10
2023-05-17T09:49:15.986Z,17.20
2023-05-17T09:51:45.446Z,17.20
2023-05-17T09:54:12.465Z,17.10
2023-05-17T09:56:39.836Z,17.10
2023-05-17T09:59:17.013Z,17.00
2023-05-17T10:01:45.757Z,16.90
2023-05-17T10:04:14.734Z,16.90
2023-05-17T10:06:49.832Z,16.90
2023-05-17T10:09:21.675Z,17.00
2023-05-17T10:11:48.683Z,17.20
2023-05-17T10:14:27.787Z,17.30
2023-05-17T10:16:55.308Z,17.40
2023-05-17T10:19:23.664Z,17.50
2023-05-17T10:21:52.348Z,17.50
2023-05-17T10:24:21.769Z,17.60
2023-05-17T10:26:51.239Z,17.60
2023-05-17T10:29:20.982Z,17.50
2023-05-17T10:31:50.242Z,17.50
2023-05-17T10:34:19.692Z,17.50
2023-05-17T10:36:49.238Z,17.60
2023-05-17T10:39:16.743Z,17.60
2023-05-17T10:41:46.749Z,17.50
2023-05-17T10:44:16.300Z,17.60
2023-05-17T10:46:54.222Z,17.60
2023-05-17T10:49:27.120Z,17.60
2023-05-17T10:51:54.620Z,17.60
2023-05-17T10:54:21.605Z,17.60
2023-05-17T10:56:53.592Z,17.50
2023-05-17T10:59:26.832Z,17.50
2023-05-17T11:02:08.269Z,17.50
2023-05-17T11:04:52.668Z,17.60
2023-05-17T11:07:27.770Z,17.80
2023-05-17T11:10:03.652Z,18.00
2023-05-17T11:12:38.383Z,18.10
2023-05-17T11:15:13.442Z,18.20
2023-05-17T11:17:43.513Z,18.40
2023-05-17T11:20:30.521Z,18.40
2023-05-17T11:23:04.914Z,18.50
2023-05-17T11:25:38.840Z,18.50
2023-05-17T11:28:11.224Z,18.60
2023-05-17T11:30:51.314Z,18.70
2023-05-17T11:33:29.715Z,18.70
2023-05-17T11:36:06.865Z,18.80
2023-05-17T11:38:34.719Z,18.90
2023-05-17T11:41:26.788Z,18.90
2023-05-17T11:43:54.578Z,18.90
2023-05-17T11:46:23.808Z,18.90
2023-05-17T11:48:54.629Z,18.80
2023-05-17T11:51:24.652Z,18.80
2023-05-17T11:53:55.415Z,18.80
2023-05-17T11:56:29.097Z,18.90
2023-05-17T11:59:00.159Z,18.90
2023-05-17T12:01:27.103Z,18.90
2023-05-17T12:03:59.803Z,18.90
2023-05-17T12:06:28.678Z,18.90
2023-05-17T12:08:55.754Z,18.90
2023-05-17T12:11:22.733Z,18.90
2023-05-17T12:13:52.073Z,19.00
2023-05-17T12:16:22.235Z,19.00
2023-05-17T12:18:51.225Z,19.00
2023-05-17T12:21:19.223Z,19.10
2023-05-17T12:23:50.295Z,19.10
2023-05-17T12:26:20.260Z,19.20
2023-05-17T12:28:56.230Z,19.30
2023-05-17T12:31:31.613Z,19.30
2023-05-17T12:33:59.455Z,19.40
2023-05-17T12:36:29.183Z,19.50
2023-05-17T12:38:56.953Z,19.40
2023-05-17T12:41:28.396Z,19.40
2023-05-17T12:44:06.270Z,19.40
2023-05-17T12:46:41.425Z,19.40
2023-05-17T12:49:09.691Z,19.40
2023-05-17T12:51:45.162Z,19.40
2023-05-17T12:54:26.402Z,19.40
2023-05-17T12:56:53.644Z,19.30
2023-05-17T12:59:21.456Z,19.40
2023-05-17T13:01:50.421Z,19.40
2023-05-17T13:04:19.642Z,19.40
2023-05-17T13:06:59.645Z,19.30
2023-05-17T13:09:30.780Z,19.30
2023-05-17T13:12:00.870Z,19.30
2023-05-17T13:14:42.694Z,19.30
2023-05-17T13:17:39.079Z,19.40
2023-05-17T13:20:10.548Z,19.30
2023-05-17T13:22:45.992Z,19.30
2023-05-17T13:25:15.110Z,19.40
2023-05-17T13:27:46.729Z,19.30
2023-05-17T13:30:14.909Z,19.40
2023-05-17T13:32:42.701Z,19.30
2023-05-17T13:35:09.918Z,19.30
2023-05-17T13:37:36.905Z,19.30
2023-05-17T13:40:04.773Z,19.20
2023-05-17T13:42:32.126Z,19.30
2023-05-17T13:45:01.475Z,19.20
2023-05-17T13:47:31.620Z,19.30
2023-05-17T13:50:01.718Z,19.30
2023-05-17T13:52:28.668Z,19.30
2023-05-17T13:54:55.625Z,19.30
2023-05-17T13:57:22.551Z,19.30
2023-05-17T13:59:49.838Z,19.30
2023-05-17T14:02:16.748Z,19.30
2023-05-17T14:04:43.715Z,19.30
2023-05-17T14:07:10.648Z,19.30
2023-05-17T14:09:37.734Z,19.40
2023-05-17T14:12:05.034Z,19.50
2023-05-17T14:14:32.213Z,19.40
2023-05-17T14:16:59.177Z,19.50
2023-05-17T14:19:26.259Z,19.50
2023-05-17T14:21:57.817Z,19.60
2023-05-17T14:24:24.747Z,19.60
2023-05-17T14:26:51.688Z,19.70
2023-05-17T14:29:18.628Z,19.70
2023-05-17T14:31:45.654Z,19.70
2023-05-17T14:34:12.636Z,19.60
2023-05-17T14:36:39.608Z,19.60
2023-05-17T14:39:06.571Z,19.50
2023-05-17T14:41:33.561Z,19.50
2023-05-17T14:44:00.485Z,19.40
2023-05-17T14:46:27.399Z,19.30
2023-05-17T14:48:56.260Z,19.30
2023-05-17T14:51:23.603Z,19.20
2023-05-17T14:53:50.508Z,19.20
2023-05-17T14:56:17.729Z,19.20
2023-05-17T14:58:44.731Z,19.20
2023-05-17T15:01:12.178Z,19.20
2023-05-17T15:03:39.183Z,19.20
2023-05-17T15:06:08.851Z,19.20
2023-05-17T15:08:39.169Z,19.10
2023-05-17T15:11:06.169Z,19.20
2023-05-17T15:13:33.095Z,19.10
2023-05-17T15:16:00.036Z,19.20
2023-05-17T15:18:27.047Z,19.20
2023-05-17T15:20:53.959Z,19.20
2023-05-17T15:23:20.999Z,19.20
2023-05-17T15:25:47.898Z,19.20
2023-05-17T15:28:15.021Z,19.20
2023-05-17T15:30:42.108Z,19.20
2023-05-17T15:33:09.367Z,19.10
2023-05-17T15:35:37.133Z,19.10
2023-05-17T15:38:07.640Z,19.00
2023-05-17T15:40:34.550Z,19.00
2023-05-17T15:43:01.470Z,19.00
2023-05-17T15:45:29.796Z,19.00
2023-05-17T15:47:57.185Z,19.00
2023-05-17T15:50:24.267Z,19.00
2023-05-17T15:52:51.270Z,19.00
2023-05-17T15:55:18.226Z,19.00
2023-05-17T15:57:46.468Z,19.00
2023-05-17T16:00:14.108Z,19.00
2023-05-17T16:02:41.082Z,19.00
2023-05-17T16:05:08.678Z,18.90
2023-05-17T16:07:35.596Z,18.90
2023-05-17T16:10:02.663Z,18.90
2023-05-17T16:12:29.667Z,18.90
2023-05-17T16:14:56.745Z,18.90
2023-05-17T16:17:23.789Z,18.90
2023-05-17T16:19:51.040Z,18.90
2023-05-17T16:22:18.036Z,18.90
2023-05-17T16:24:45.030Z,18.90
2023-05-17T16:27:11.965Z,18.90
2023-05-17T16:29:40.302Z,19.00
2023-05-17T16:32:08.365Z,19.00
2023-05-17T16:34:36.203Z,19.20
2023-05-17T16:37:04.479Z,19.30
2023-05-17T16:39:31.628Z,19.50
2023-05-17T16:41:58.569Z,19.80
2023-05-17T16:44:25.517Z,20.00
2023-05-17T16:46:52.490Z,20.30
2023-05-17T16:49:19.551Z,20.50
2023-05-17T16:51:46.559Z,20.80
2023-05-17T16:54:13.500Z,20.90
2023-05-17T16:56:40.414Z,21.10
2023-05-17T16:59:07.416Z,21.30
2023-05-17T17:01:34.344Z,21.40
2023-05-17T17:04:01.813Z,21.60
2023-05-17T17:06:28.830Z,21.70
2023-05-17T17:08:56.146Z,21.80
2023-05-17T17:11:23.151Z,21.90
2023-05-17T17:13:50.209Z,22.00
2023-05-17T17:16:17.672Z,22.00
2023-05-17T17:18:44.745Z,22.10
2023-05-17T17:21:11.733Z,22.10
2023-05-17T17:23:40.212Z,22.10
2023-05-17T17:26:08.778Z,22.10
2023-05-17T17:28:35.729Z,22.10
2023-05-17T17:31:02.663Z,21.90
2023-05-17T17:33:29.800Z,21.70
2023-05-17T17:35:56.752Z,21.50
2023-05-17T17:38:23.703Z,21.20
2023-05-17T17:40:50.898Z,20.90
2023-05-17T17:43:17.890Z,20.70
2023-05-17T17:45:46.923Z,20.40
2023-05-17T17:48:14.230Z,20.10
2023-05-17T17:50:41.299Z,19.90
2023-05-17T17:53:08.394Z,19.70
2023-05-17T17:55:35.478Z,19.50
2023-05-17T17:58:02.435Z,19.30
2023-05-17T18:00:29.593Z,19.20
2023-05-17T18:02:56.862Z,19.00
2023-05-17T18:05:25.818Z,18.80
2023-05-17T18:07:53.114Z,18.70
2023-05-17T18:10:20.139Z,18.50
2023-05-17T18:12:47.924Z,18.30
2023-05-17T18:15:16.454Z,18.20
2023-05-17T18:17:43.434Z,18.10
2023-05-17T18:20:10.684Z,18.00
2023-05-17T18:22:37.650Z,17.80
2023-05-17T18:25:04.777Z,17.70
2023-05-17T18:27:31.697Z,17.60
2023-05-17T18:29:58.589Z,17.50
2023-05-17T18:32:25.582Z,17.50
2023-05-17T18:34:52.576Z,17.40
2023-05-17T18:37:19.516Z,17.30
2023-05-17T18:39:46.437Z,17.30
2023-05-17T18:42:13.341Z,17.20
2023-05-17T18:44:40.301Z,17.10
2023-05-17T18:47:08.097Z,17.00
2023-05-17T18:49:36.456Z,17.00
2023-05-17T18:52:03.493Z,16.90
2023-05-17T18:54:30.398Z,16.80
2023-05-17T18:56:57.355Z,16.70
2023-05-17T18:59:24.296Z,16.60
2023-05-17T19:01:51.200Z,16.50
2023-05-17T19:04:18.206Z,16.50
2023-05-17T19:06:45.376Z,16.40
2023-05-17T19:09:12.297Z,16.30
2023-05-17T19:11:39.244Z,16.20
2023-05-17T19:14:06.259Z,16.20
2023-05-17T19:16:33.200Z,16.10
2023-05-17T19:19:00.164Z,16.00
2023-05-17T19:21:27.562Z,15.90
2023-05-17T19:23:54.564Z,15.90
2023-05-17T19:26:21.853Z,15.70
2023-05-17T19:28:48.822Z,15.70
2023-05-17T19:31:15.810Z,15.60
2023-05-17T19:33:42.906Z,15.50
2023-05-17T19:36:09.839Z,15.50
2023-05-17T19:38:36.756Z,15.40
2023-05-17T19:41:03.724Z,15.30
2023-05-17T19:43:32.212Z,15.20
2023-05-17T19:45:59.193Z,15.20
2023-05-17T19:48:26.785Z,15.10
2023-05-17T19:50:56.158Z,15.10
2023-05-17T19:53:23.830Z,15.00
2023-05-17T19:55:50.765Z,14.90
2023-05-17T19:58:17.731Z,14.90
2023-05-17T20:00:44.753Z,14.80
2023-05-17T20:03:11.870Z,14.80
2023-05-17T20:05:38.905Z,14.80
2023-05-17T20:08:08.018Z,14.70
2023-05-17T20:10:35.277Z,14.60
2023-05-17T20:13:02.477Z,14.60
2023-05-17T20:15:29.386Z,14.50
2023-05-17T20:17:56.381Z,14.50
2023-05-17T20:20:23.376Z,14.40
2023-05-17T20:22:50.320Z,14.30
2023-05-17T20:25:17.232Z,14.30
2023-05-17T20:27:44.162Z,14.30
2023-05-17T20:30:11.588Z,14.20
2023-05-17T20:32:38.533Z,14.20
2023-05-17T20:35:06.289Z,14.10
2023-05-17T20:37:33.788Z,14.10
2023-05-17T20:40:00.785Z,14.00
2023-05-17T20:42:28.949Z,14.00
2023-05-17T20:44:57.656Z,13.90
2023-05-17T20:47:25.244Z,13.90
2023-05-17T20:49:52.302Z,13.80
2023-05-17T20:52:31.408Z,13.90
2023-05-17T20:55:05.673Z,13.80
2023-05-17T20:57:32.615Z,13.80
2023-05-17T20:59:59.550Z,13.70
2023-05-17T21:02:26.708Z,13.60
2023-05-17T21:04:54.652Z,13.60
2023-05-17T21:07:22.339Z,13.50
2023-05-17T21:09:49.303Z,13.50
2023-05-17T21:12:16.198Z,13.40
2023-05-17T21:14:43.107Z,13.40
2023-05-17T21:17:10.359Z,13.40
2023-05-17T21:19:37.334Z,13.40
2023-05-17T21:22:04.486Z,13.30
2023-05-17T21:24:31.416Z,13.30
2023-05-17T21:26:58.472Z,13.20
2023-05-17T21:29:25.566Z,13.20
2023-05-17T21:31:52.549Z,13.20
2023-05-17T21:34:19.534Z,13.20
2023-05-17T21:36:46.588Z,13.20
2023-05-17T21:39:13.567Z,13.20
2023-05-17T21:41:40.517Z,13.20
2023-05-17T21:44:07.439Z,13.20
2023-05-17T21:46:34.455Z,13.20
2023-05-17T21:49:01.380Z,13.20
2023-05-17T21:51:28.302Z,13.20
2023-05-17T21:53:55.345Z,13.20
2023-05-17T21:56:22.298Z,13.20
2023-05-17T21:58:49.198Z,13.20
2023-05-17T22:01:18.087Z,13.20
2023-05-17T22:03:45.100Z,13.20
2023-05-17T22:06:12.091Z,13.20
2023-05-17T22:08:42.302Z,13.20
2023-05-17T22:11:10.957Z,13.10
2023-05-17T22:13:38.129Z,13.20
2023-05-17T22:16:06.192Z,13.10
2023-05-17T22:18:33.213Z,13.10
2023-05-17T22:21:00.168Z,13.10
2023-05-17T22:23:27.776Z,13.10
2023-05-17T22:25:57.096Z,13.10
2023-05-17T22:28:24.043Z,13.10
2023-05-17T22:30:50.945Z,13.00
2023-05-17T22:33:17.865Z,13.00
2023-05-17T22:35:44.789Z,13.00
2023-05-17T22:38:11.716Z,13.00
2023-05-17T22:40:38.635Z,12.90
2023-05-17T22:43:08.174Z,12.90
2023-05-17T22:45:35.182Z,12.90
2023-05-17T22:48:05.828Z,12.80
2023-05-17T22:50:33.146Z,12.80
2023-05-17T22:53:01.168Z,12.80
2023-05-17T22:55:28.621Z,12.80
2023-05-17T22:57:56.477Z,12.80
2023-05-17T23:00:25.046Z,12.70
2023-05-17T23:02:52.071Z,12.70
2023-05-17T23:05:19.023Z,12.70
2023-05-17T23:07:47.235Z,12.60
2023-05-17T23:10:15.416Z,12.60
2023-05-17T23:12:42.363Z,12.60
2023-05-17T23:15:10.451Z,12.50
2023-05-17T23:17:38.863Z,12.50
2023-05-17T23:20:13.014Z,12.40
2023-05-17T23:22:40.178Z,12.40
2023-05-17T23:25:07.412Z,12.30
2023-05-17T23:27:35.447Z,12.30
2023-05-17T23:30:02.800Z,12.20
2023-05-17T23:32:32.538Z,12.20
2023-05-17T23:35:05.786Z,12.20
2023-05-17T23:37:33.643Z,12.10
2023-05-17T23:40:01.038Z,12.10
2023-05-17T23:42:29.435Z,12.00
2023-05-17T23:44:56.448Z,12.00
2023-05-17T23:47:23.406Z,12.00
2023-05-17T23:49:50.943Z,12.00
2023-05-17T23:52:19.154Z,11.90
2023-05-17T23:54:47.348Z,11.90
2023-05-17T23:57:14.381Z,11.90
2023-05-17T23:59:41.841Z,11.80
